createdAt,value
2019-06-26T00:00:56.654Z,97904.45
2019-06-26T00:02:00.859Z,97902.70
2019-06-26T00:03:04.865Z,97898.22
2019-06-26T00:04:09.188Z,97892.77
2019-06-26T00:05:12.831Z,97897.66
2019-06-26T00:06:17.062Z,97898.23
2019-06-26T00:07:20.706Z,97904.27
2019-06-26T00:08:24.844Z,97904.45
2019-06-26T00:09:28.423Z,97896.43
2019-06-26T00:10:32.650Z,97900.53
2019-06-26T00:11:36.276Z,97902.64
2019-06-26T00:12:40.513Z,97904.00
2019-06-26T00:13:44.115Z,97903.63
2019-06-26T00:14:48.258Z,97907.36
2019-06-26T00:15:51.799Z,97902.07
2019-06-26T00:16:56.033Z,97907.95
2019-06-26T00:17:59.672Z,97906.53
2019-06-26T00:19:03.832Z,97908.05
2019-06-26T00:20:08.145Z,97907.06
2019-06-26T00:21:12.351Z,97905.69
2019-06-26T00:22:16.282Z,97910.94
2019-06-26T00:23:20.517Z,97916.77
2019-06-26T00:24:24.203Z,97922.05
2019-06-26T00:25:28.332Z,97925.49
2019-06-26T00:26:31.882Z,97925.22
2019-06-26T00:27:36.094Z,97925.45
2019-06-26T00:28:39.666Z,97920.38
2019-06-26T00:29:43.791Z,97919.55
2019-06-26T00:30:47.300Z,97921.66
2019-06-26T00:31:51.455Z,97921.27
2019-06-26T00:32:55.019Z,97921.68
2019-06-26T00:33:59.229Z,97921.92
2019-06-26T00:35:02.913Z,97916.32
2019-06-26T00:36:07.051Z,97919.05
2019-06-26T00:37:10.687Z,97918.81
2019-06-26T00:38:15.269Z,97917.03
2019-06-26T00:39:18.938Z,97917.66
2019-06-26T00:40:23.118Z,97920.20
2019-06-26T00:41:26.709Z,97920.79
2019-06-26T00:42:31.331Z,97913.58
2019-06-26T00:43:42.318Z,97918.83
2019-06-26T00:44:41.159Z,97918.02
2019-06-26T00:45:44.840Z,97920.89
2019-06-26T00:46:48.916Z,97915.06
2019-06-26T00:47:52.589Z,97916.24
2019-06-26T00:48:57.080Z,97915.66
2019-06-26T00:50:00.632Z,97913.72
2019-06-26T00:51:04.874Z,97914.50
2019-06-26T00:52:08.521Z,97911.17
2019-06-26T00:53:12.752Z,97917.23
2019-06-26T00:54:16.301Z,97914.50
2019-06-26T00:55:20.537Z,97910.97
2019-06-26T00:56:24.149Z,97912.14
2019-06-26T00:57:28.656Z,97904.95
2019-06-26T00:58:32.229Z,97905.52
2019-06-26T00:59:36.757Z,97901.64
2019-06-26T01:00:45.785Z,97906.91
2019-06-26T01:01:50.044Z,97904.18
2019-06-26T01:02:53.589Z,97904.59
2019-06-26T01:03:58.805Z,97909.64
2019-06-26T01:05:04.018Z,97915.31
2019-06-26T01:06:09.208Z,97911.00
2019-06-26T01:07:12.745Z,97910.83
2019-06-26T01:08:16.972Z,97915.66
2019-06-26T01:09:20.614Z,97913.72
2019-06-26T01:10:24.844Z,97915.27
2019-06-26T01:11:28.453Z,97909.75
2019-06-26T01:12:32.723Z,97915.20
2019-06-26T01:13:36.306Z,97915.20
2019-06-26T01:14:40.555Z,97919.42
2019-06-26T01:15:44.566Z,97920.58
2019-06-26T01:16:48.704Z,97921.78
2019-06-26T01:17:52.415Z,97928.86
2019-06-26T01:18:56.638Z,97931.16
2019-06-26T01:20:00.280Z,97930.78
2019-06-26T01:21:04.433Z,97934.64
2019-06-26T01:22:07.986Z,97941.97
2019-06-26T01:23:12.090Z,97939.16
2019-06-26T01:24:15.591Z,97940.52
2019-06-26T01:25:19.817Z,97938.42
2019-06-26T01:26:23.456Z,97937.45
2019-06-26T01:27:27.934Z,97946.25
2019-06-26T01:28:31.548Z,97942.16
2019-06-26T01:29:35.754Z,97946.64
2019-06-26T01:30:39.464Z,97951.44
2019-06-26T01:31:43.762Z,97948.69
2019-06-26T01:32:47.381Z,97954.93
2019-06-26T01:33:51.568Z,97955.88
2019-06-26T01:34:55.141Z,97954.12
2019-06-26T01:35:59.275Z,97951.99
2019-06-26T01:37:02.786Z,97950.63
2019-06-26T01:38:07.010Z,97947.90
2019-06-26T01:39:11.034Z,97954.51
2019-06-26T01:40:15.355Z,97954.51
2019-06-26T01:41:18.972Z,97955.14
2019-06-26T01:42:23.184Z,97950.84
2019-06-26T01:43:26.771Z,97951.55
2019-06-26T01:44:31.032Z,97947.61
2019-06-26T01:45:34.587Z,97952.92
2019-06-26T01:46:38.679Z,97951.50
2019-06-26T01:47:42.615Z,97950.95
2019-06-26T01:48:46.826Z,97943.95
2019-06-26T01:49:50.747Z,97951.86
2019-06-26T01:50:54.885Z,97945.80
2019-06-26T01:51:58.513Z,97939.66
2019-06-26T01:53:02.656Z,97940.47
2019-06-26T01:54:06.305Z,97936.05
2019-06-26T01:55:10.963Z,97937.83
2019-06-26T01:56:14.594Z,97934.92
2019-06-26T01:57:18.818Z,97934.41
2019-06-26T01:58:22.371Z,97931.10
2019-06-26T01:59:26.517Z,97937.50
2019-06-26T02:00:32.412Z,97950.77
2019-06-26T02:01:36.643Z,97955.65
2019-06-26T02:02:40.291Z,97963.83
2019-06-26T02:03:44.436Z,97957.59
2019-06-26T02:04:48.060Z,97956.22
2019-06-26T02:05:52.310Z,97951.21
2019-06-26T02:06:55.883Z,97950.31
2019-06-26T02:08:00.169Z,97950.62
2019-06-26T02:09:04.876Z,97947.17
2019-06-26T02:10:10.660Z,97948.98
2019-06-26T02:11:14.272Z,97956.84
2019-06-26T02:12:18.454Z,97954.75
2019-06-26T02:13:22.058Z,97957.87
2019-06-26T02:14:30.872Z,97951.26
2019-06-26T02:15:31.599Z,97952.02
2019-06-26T02:16:35.824Z,97953.92
2019-06-26T02:17:39.382Z,97958.53
2019-06-26T02:18:47.875Z,97955.44
2019-06-26T02:19:51.460Z,97957.80
2019-06-26T02:20:55.759Z,97950.77
2019-06-26T02:21:59.471Z,97951.14
2019-06-26T02:23:03.799Z,97951.32
2019-06-26T02:24:07.370Z,97949.28
2019-06-26T02:25:11.779Z,97947.34
2019-06-26T02:26:15.959Z,97948.61
2019-06-26T02:27:20.201Z,97953.34
2019-06-26T02:28:23.828Z,97951.80
2019-06-26T02:29:28.061Z,97958.68
2019-06-26T02:30:31.624Z,97956.34
2019-06-26T02:31:35.797Z,97954.59
2019-06-26T02:32:39.453Z,97958.25
2019-06-26T02:33:43.607Z,97959.83
2019-06-26T02:34:47.230Z,97955.25
2019-06-26T02:35:51.448Z,97960.70
2019-06-26T02:36:55.117Z,97959.48
2019-06-26T02:37:59.336Z,97959.64
2019-06-26T02:39:02.931Z,97956.30
2019-06-26T02:40:08.147Z,97959.14
2019-06-26T02:41:11.779Z,97963.33
2019-06-26T02:42:15.965Z,97962.62
2019-06-26T02:43:19.578Z,97960.53
2019-06-26T02:44:23.812Z,97963.05
2019-06-26T02:45:27.372Z,97962.62
2019-06-26T02:46:31.510Z,97962.22
2019-06-26T02:47:35.397Z,97965.84
2019-06-26T02:48:39.968Z,97958.73
2019-06-26T02:49:43.614Z,97960.98
2019-06-26T02:50:47.837Z,97959.63
2019-06-26T02:51:51.455Z,97965.29
2019-06-26T02:52:55.594Z,97966.82
2019-06-26T02:53:59.134Z,97966.08
2019-06-26T02:55:03.286Z,97965.61
2019-06-26T02:56:06.917Z,97967.77
2019-06-26T02:57:11.018Z,97965.50
2019-06-26T02:58:14.675Z,97961.16
2019-06-26T02:59:18.939Z,97962.42
2019-06-26T03:00:22.573Z,97965.08
2019-06-26T03:01:26.779Z,97965.44
2019-06-26T03:02:30.407Z,97959.28
2019-06-26T03:03:34.571Z,97964.72
2019-06-26T03:04:38.227Z,97966.80
2019-06-26T03:05:42.320Z,97965.80
2019-06-26T03:06:48.863Z,97971.68
2019-06-26T03:07:52.940Z,97970.58
2019-06-26T03:08:56.483Z,97972.90
2019-06-26T03:10:00.722Z,97960.64
2019-06-26T03:11:04.351Z,97972.21
2019-06-26T03:12:08.596Z,97972.93
2019-06-26T03:13:12.218Z,97973.37
2019-06-26T03:14:16.358Z,97980.84
2019-06-26T03:15:20.050Z,97979.69
2019-06-26T03:16:24.267Z,97978.12
2019-06-26T03:17:27.764Z,97975.52
2019-06-26T03:18:31.996Z,97972.27
2019-06-26T03:19:35.671Z,97967.66
2019-06-26T03:20:42.807Z,97972.57
2019-06-26T03:21:46.284Z,97976.04
2019-06-26T03:22:50.360Z,97982.06
2019-06-26T03:23:53.996Z,97979.06
2019-06-26T03:24:58.240Z,97980.38
2019-06-26T03:26:02.287Z,97986.41
2019-06-26T03:27:09.013Z,97988.81
2019-06-26T03:28:11.757Z,97989.64
2019-06-26T03:29:15.897Z,97986.98
2019-06-26T03:30:19.752Z,97983.63
2019-06-26T03:31:24.008Z,97984.88
2019-06-26T03:32:27.557Z,97981.33
2019-06-26T03:33:31.707Z,97982.97
2019-06-26T03:34:35.348Z,97978.53
2019-06-26T03:35:40.867Z,97981.30
2019-06-26T03:36:45.024Z,97984.63
2019-06-26T03:37:49.260Z,97987.89
2019-06-26T03:38:52.821Z,97990.19
2019-06-26T03:39:57.004Z,97991.51
2019-06-26T03:41:00.698Z,97988.28
2019-06-26T03:42:04.939Z,97987.20
2019-06-26T03:43:08.530Z,97984.88
2019-06-26T03:44:12.745Z,97984.91
2019-06-26T03:45:25.586Z,97982.80
2019-06-26T03:46:22.909Z,97992.98
2019-06-26T03:47:26.464Z,97991.66
2019-06-26T03:48:30.615Z,97992.27
2019-06-26T03:49:34.182Z,97989.19
2019-06-26T03:50:38.441Z,97991.55
2019-06-26T03:51:42.044Z,97986.50
2019-06-26T03:52:46.287Z,97985.00
2019-06-26T03:53:49.863Z,97984.31
2019-06-26T03:54:54.443Z,97982.20
2019-06-26T03:55:57.959Z,97980.63
2019-06-26T03:57:02.191Z,97988.91
2019-06-26T03:58:05.853Z,97989.87
2019-06-26T03:59:10.000Z,97990.70
2019-06-26T04:00:14.230Z,97986.50
2019-06-26T04:01:18.449Z,97985.02
2019-06-26T04:02:21.952Z,97982.91
2019-06-26T04:03:26.239Z,97985.95
2019-06-26T04:04:29.717Z,97978.36
2019-06-26T04:05:34.536Z,97982.52
2019-06-26T04:06:38.048Z,97980.61
2019-06-26T04:07:42.189Z,97982.58
2019-06-26T04:08:45.901Z,97986.88
2019-06-26T04:09:50.131Z,97990.04
2019-06-26T04:10:53.766Z,97996.09
2019-06-26T04:11:57.847Z,97998.28
2019-06-26T04:13:01.617Z,97997.92
2019-06-26T04:14:05.863Z,97997.95
2019-06-26T04:15:09.944Z,98001.05
2019-06-26T04:16:14.164Z,98000.68
2019-06-26T04:17:17.814Z,97999.35
2019-06-26T04:18:21.964Z,97999.23
2019-06-26T04:19:25.567Z,98003.39
2019-06-26T04:20:29.786Z,97997.75
2019-06-26T04:21:33.417Z,97996.96
2019-06-26T04:22:37.636Z,97998.59
2019-06-26T04:23:41.213Z,97993.94
2019-06-26T04:24:45.430Z,97990.35
2019-06-26T04:25:48.994Z,97993.62
2019-06-26T04:26:53.227Z,97992.72
2019-06-26T04:27:56.870Z,97992.17
2019-06-26T04:29:01.407Z,97988.98
2019-06-26T04:30:07.141Z,97990.59
2019-06-26T04:31:11.354Z,97992.38
2019-06-26T04:32:14.931Z,97994.56
2019-06-26T04:33:19.169Z,97983.38
2019-06-26T04:34:22.716Z,97984.34
2019-06-26T04:35:26.885Z,97981.69
2019-06-26T04:36:30.535Z,97984.08
2019-06-26T04:37:34.691Z,97993.30
2019-06-26T04:38:38.265Z,97986.11
2019-06-26T04:39:42.513Z,97994.23
2019-06-26T04:40:46.052Z,97994.17
2019-06-26T04:41:50.209Z,97995.36
2019-06-26T04:42:53.828Z,97997.17
2019-06-26T04:43:57.994Z,98002.91
2019-06-26T04:45:01.708Z,98003.78
2019-06-26T04:46:05.989Z,98002.41
2019-06-26T04:47:09.650Z,98006.69
2019-06-26T04:48:13.926Z,98008.48
2019-06-26T04:49:17.563Z,98003.63
2019-06-26T04:50:21.914Z,98003.27
2019-06-26T04:51:25.542Z,98003.11
2019-06-26T04:52:29.754Z,98002.71
2019-06-26T04:53:33.401Z,98003.69
2019-06-26T04:54:37.589Z,97996.44
2019-06-26T04:55:41.194Z,97999.92
2019-06-26T04:56:45.317Z,98002.69
2019-06-26T04:57:48.802Z,98005.84
2019-06-26T04:58:53.068Z,98009.30
2019-06-26T04:59:56.713Z,98012.11
2019-06-26T05:01:00.783Z,98008.23
2019-06-26T05:02:04.467Z,98005.89
2019-06-26T05:03:08.667Z,98007.31
2019-06-26T05:04:12.615Z,98007.77
2019-06-26T05:05:17.147Z,98008.73
2019-06-26T05:06:20.782Z,98008.78
2019-06-26T05:07:25.110Z,98007.77
2019-06-26T05:08:28.601Z,98007.10
2019-06-26T05:09:32.824Z,98011.02
2019-06-26T05:10:36.469Z,98012.59
2019-06-26T05:11:40.672Z,98008.36
2019-06-26T05:12:44.341Z,98012.12
2019-06-26T05:13:48.496Z,98015.30
2019-06-26T05:14:52.076Z,98013.59
2019-06-26T05:15:56.205Z,98016.55
2019-06-26T05:16:59.844Z,98021.06
2019-06-26T05:18:04.013Z,98020.52
2019-06-26T05:19:07.580Z,98018.02
2019-06-26T05:20:12.202Z,98023.28
2019-06-26T05:21:15.761Z,98020.20
2019-06-26T05:22:19.981Z,98013.59
2019-06-26T05:23:23.588Z,98013.27
2019-06-26T05:24:27.726Z,98014.59
2019-06-26T05:25:31.279Z,98012.11
2019-06-26T05:26:35.524Z,98008.80
2019-06-26T05:27:39.082Z,98000.14
2019-06-26T05:28:43.799Z,98005.86
2019-06-26T05:29:47.382Z,98001.43
2019-06-26T05:30:51.576Z,98004.58
2019-06-26T05:31:55.205Z,98001.84
2019-06-26T05:32:59.438Z,98003.66
2019-06-26T05:34:03.105Z,98006.67
2019-06-26T05:35:09.631Z,98009.40
2019-06-26T05:36:13.348Z,98006.70
2019-06-26T05:37:17.485Z,98009.64
2019-06-26T05:38:21.137Z,98012.52
2019-06-26T05:39:25.382Z,98007.31
2019-06-26T05:40:28.945Z,98013.80
2019-06-26T05:41:33.595Z,98012.28
2019-06-26T05:42:37.265Z,98015.81
2019-06-26T05:43:41.448Z,98015.45
2019-06-26T05:44:45.095Z,98013.51
2019-06-26T05:45:49.327Z,98020.39
2019-06-26T05:46:52.928Z,98010.48
2019-06-26T05:47:57.087Z,98015.81
2019-06-26T05:49:00.726Z,98018.97
2019-06-26T05:50:06.936Z,98022.49
2019-06-26T05:51:10.562Z,98021.50
2019-06-26T05:52:16.699Z,98018.39
2019-06-26T05:53:20.127Z,98021.55
2019-06-26T05:54:24.189Z,98017.27
2019-06-26T05:55:28.138Z,98021.80
2019-06-26T06:09:19.862Z,98028.83
2019-06-26T06:10:24.104Z,98035.27
2019-06-26T06:11:27.689Z,98031.95
2019-06-26T06:12:31.893Z,98036.86
2019-06-26T06:13:35.478Z,98033.92
2019-06-26T06:14:39.723Z,98032.55
2019-06-26T06:15:43.218Z,98030.21
2019-06-26T06:16:48.079Z,98025.89
2019-06-26T06:17:51.922Z,98026.87
2019-06-26T06:18:56.086Z,98033.91
2019-06-26T06:19:59.783Z,98029.23
2019-06-26T06:21:04.097Z,98033.33
2019-06-26T06:22:07.729Z,98028.25
2019-06-26T06:23:11.921Z,98030.00
2019-06-26T06:24:15.478Z,98039.02
2019-06-26T06:25:19.654Z,98033.94
2019-06-26T06:26:23.544Z,98037.07
2019-06-26T06:27:27.684Z,98039.22
2019-06-26T06:28:31.360Z,98039.61
2019-06-26T06:29:35.509Z,98043.31
2019-06-26T06:30:39.026Z,98040.97
2019-06-26T06:31:43.237Z,98040.41
2019-06-26T06:32:46.823Z,98036.30
2019-06-26T06:33:50.954Z,98035.30
2019-06-26T06:34:54.583Z,98035.91
2019-06-26T06:35:58.834Z,98036.48
2019-06-26T06:37:02.407Z,98036.09
2019-06-26T06:38:06.550Z,98044.71
2019-06-26T06:39:10.253Z,98040.61
2019-06-26T06:40:15.385Z,98036.30
2019-06-26T06:41:19.007Z,98039.44
2019-06-26T06:42:23.151Z,98036.68
2019-06-26T06:43:26.798Z,98032.19
2019-06-26T06:44:30.940Z,98037.67
2019-06-26T06:45:34.608Z,98038.25
2019-06-26T06:46:38.691Z,98034.70
2019-06-26T06:47:42.351Z,98031.58
2019-06-26T06:48:46.471Z,98032.95
2019-06-26T06:49:50.150Z,98034.16
2019-06-26T06:50:54.321Z,98036.89
2019-06-26T06:51:57.877Z,98040.61
2019-06-26T06:53:02.139Z,98037.08
2019-06-26T06:54:05.780Z,98033.53
2019-06-26T06:55:10.445Z,98037.25
2019-06-26T06:56:15.630Z,98042.16
2019-06-26T06:57:20.250Z,98037.25
2019-06-26T06:58:23.904Z,98035.68
2019-06-26T06:59:28.194Z,98041.94
2019-06-26T07:00:31.860Z,98038.02
2019-06-26T07:01:36.081Z,98037.44
2019-06-26T07:02:39.719Z,98035.88
2019-06-26T07:03:43.935Z,98030.58
2019-06-26T07:16:39.115Z,98029.77
2019-06-26T07:17:43.338Z,98033.24
2019-06-26T07:18:46.922Z,98027.78
2019-06-26T07:19:51.166Z,98028.17
2019-06-26T07:20:54.805Z,98025.79
2019-06-26T07:21:58.967Z,98027.75
2019-06-26T07:23:02.640Z,98025.56
2019-06-26T07:24:06.857Z,98028.91
2019-06-26T07:25:10.690Z,98028.09
2019-06-26T07:26:14.953Z,98029.69
2019-06-26T07:27:18.518Z,98039.91
2019-06-26T07:28:22.990Z,98031.48
2019-06-26T07:29:26.736Z,98029.40
2019-06-26T07:30:33.464Z,98032.12
2019-06-26T07:31:38.569Z,98030.58
2019-06-26T07:32:46.289Z,98026.23
2019-06-26T07:33:49.855Z,98028.17
2019-06-26T07:34:54.129Z,98021.14
2019-06-26T07:35:57.813Z,98029.34
2019-06-26T07:37:02.171Z,98028.93
2019-06-26T07:38:05.853Z,98030.86
2019-06-26T07:39:11.579Z,98030.44
2019-06-26T07:40:15.431Z,98022.98
2019-06-26T07:41:22.614Z,98028.05
2019-06-26T07:42:26.665Z,98031.20
2019-06-26T07:43:32.615Z,98033.52
2019-06-26T07:44:36.206Z,98027.41
2019-06-26T07:45:40.802Z,98029.36
2019-06-26T07:46:44.509Z,98030.94
2019-06-26T07:47:50.352Z,98032.73
2019-06-26T07:48:57.374Z,98029.82
2019-06-26T07:50:01.374Z,98028.78
2019-06-26T07:51:05.037Z,98024.78
2019-06-26T07:52:09.644Z,98026.47
2019-06-26T07:53:13.294Z,98030.75
2019-06-26T07:54:17.540Z,98025.38
2019-06-26T07:55:21.167Z,98024.30
2019-06-26T07:56:25.415Z,98027.41
2019-06-26T07:57:28.998Z,98029.48
2019-06-26T07:58:33.282Z,98032.00
2019-06-26T07:59:36.916Z,98024.50
2019-06-26T08:00:42.718Z,98027.17
2019-06-26T08:01:46.371Z,98031.41
2019-06-26T08:02:50.518Z,98029.41
2019-06-26T08:03:54.204Z,98031.77
2019-06-26T08:04:58.410Z,98030.16
2019-06-26T08:06:04.842Z,98026.61
2019-06-26T08:07:12.827Z,98026.61
2019-06-26T08:08:15.732Z,98018.84
2019-06-26T08:09:19.899Z,98021.23
2019-06-26T08:10:23.533Z,98023.73
2019-06-26T08:11:27.768Z,98023.72
2019-06-26T08:12:31.337Z,98020.27
2019-06-26T08:13:35.488Z,98023.12
2019-06-26T08:14:39.106Z,98019.45
2019-06-26T08:15:43.287Z,98026.16
2019-06-26T08:16:46.899Z,98022.39
2019-06-26T08:18:00.302Z,98018.15
2019-06-26T08:19:02.522Z,98017.35
2019-06-26T08:20:07.537Z,98023.34
2019-06-26T08:21:18.418Z,98024.52
2019-06-26T08:22:33.419Z,98024.70
2019-06-26T08:23:42.665Z,98027.19
2019-06-26T08:24:50.149Z,98024.84
2019-06-26T08:25:53.800Z,98021.38
2019-06-26T08:27:04.620Z,98025.11
2019-06-26T08:28:08.347Z,98021.52
2019-06-26T08:29:12.561Z,98018.17
2019-06-26T08:30:16.325Z,98015.59
2019-06-26T08:31:20.496Z,98017.68
2019-06-26T08:32:26.063Z,98018.42
2019-06-26T08:33:30.087Z,98019.36
2019-06-26T08:34:33.601Z,98016.79
2019-06-26T08:35:37.812Z,98020.97
2019-06-26T08:36:41.306Z,98018.61
2019-06-26T08:37:45.711Z,98020.45
2019-06-26T08:38:49.298Z,98020.08
2019-06-26T08:39:53.852Z,98018.66
2019-06-26T08:40:57.612Z,98022.31
2019-06-26T08:42:01.841Z,98014.33
2019-06-26T08:43:05.439Z,98014.08
2019-06-26T08:44:09.966Z,98015.00
2019-06-26T08:45:13.715Z,98011.02
2019-06-26T08:46:17.864Z,98010.48
2019-06-26T08:47:21.440Z,98019.06
2019-06-26T08:48:38.918Z,98017.90
2019-06-26T08:49:30.997Z,98016.03
2019-06-26T08:50:35.238Z,98015.62
2019-06-26T08:51:38.865Z,98018.31
2019-06-26T08:52:43.011Z,98015.91
2019-06-26T08:53:46.626Z,98015.26
2019-06-26T08:54:50.822Z,98009.34
2019-06-26T08:55:54.456Z,98009.33
2019-06-26T08:56:58.711Z,98012.84
2019-06-26T08:58:02.201Z,98012.14
2019-06-26T08:59:06.471Z,98008.21
2019-06-26T09:00:11.621Z,98009.74
2019-06-26T09:01:15.844Z,98007.58
2019-06-26T09:02:24.218Z,98003.28
2019-06-26T09:03:28.308Z,98000.94
2019-06-26T09:04:31.927Z,98003.39
2019-06-26T09:05:47.358Z,97994.50
2019-06-26T09:06:41.522Z,97997.08
2019-06-26T09:07:45.735Z,97996.03
2019-06-26T09:08:49.394Z,97999.19
2019-06-26T09:10:07.773Z,98002.92
2019-06-26T09:11:11.329Z,98005.33
2019-06-26T09:12:15.565Z,98000.34
2019-06-26T09:13:19.064Z,97999.75
2019-06-26T09:14:23.414Z,98001.77
2019-06-26T09:15:27.060Z,97995.20
2019-06-26T09:16:31.211Z,97990.86
2019-06-26T09:17:35.134Z,97993.80
2019-06-26T09:18:39.354Z,97991.00
2019-06-26T09:19:42.914Z,97990.84
2019-06-26T09:20:47.123Z,97992.92
2019-06-26T09:21:50.691Z,97989.50
2019-06-26T09:22:54.766Z,97986.66
2019-06-26T09:23:58.342Z,97984.06
2019-06-26T09:25:16.803Z,97974.37
2019-06-26T09:26:07.884Z,97980.98
2019-06-26T09:27:14.873Z,97981.16
2019-06-26T09:28:17.397Z,97978.62
2019-06-26T09:29:23.974Z,97978.45
2019-06-26T09:30:27.347Z,97981.41
2019-06-26T09:31:31.592Z,97974.78
2019-06-26T09:32:35.633Z,97974.77
2019-06-26T09:33:40.128Z,97969.08
2019-06-26T09:34:43.690Z,97974.28
2019-06-26T09:35:47.864Z,97968.38
2019-06-26T09:36:51.398Z,97971.38
2019-06-26T09:37:55.656Z,97962.79
2019-06-26T09:38:59.275Z,97969.40
2019-06-26T09:40:03.500Z,97968.22
2019-06-26T09:41:07.083Z,97965.23
2019-06-26T09:42:11.332Z,97969.73
2019-06-26T09:43:14.886Z,97969.23
2019-06-26T09:44:19.141Z,97968.51
2019-06-26T09:45:22.775Z,97971.36
2019-06-26T09:46:26.899Z,97972.10
2019-06-26T09:47:31.201Z,97970.97
2019-06-26T09:48:51.393Z,97970.15
2019-06-26T09:49:40.913Z,97966.97
2019-06-26T09:50:45.125Z,97957.60
2019-06-26T09:51:48.774Z,97961.49
2019-06-26T09:52:53.335Z,97960.55
2019-06-26T09:53:56.898Z,97954.83
2019-06-26T09:55:01.027Z,97957.16
2019-06-26T09:56:05.024Z,97958.78
2019-06-26T09:57:09.109Z,97959.27
2019-06-26T09:58:13.597Z,97960.48
2019-06-26T09:59:17.991Z,97954.94
2019-06-26T10:00:22.727Z,97961.09
2019-06-26T10:01:26.939Z,97965.59
2019-06-26T10:02:30.585Z,97960.34
2019-06-26T10:03:34.872Z,97956.53
2019-06-26T10:04:38.371Z,97960.30
2019-06-26T10:05:43.043Z,97957.67
2019-06-26T10:06:46.680Z,97955.43
2019-06-26T10:07:50.832Z,97952.48
2019-06-26T10:08:54.779Z,97953.14
2019-06-26T10:09:59.142Z,97949.60
2019-06-26T10:11:03.093Z,97947.72
2019-06-26T10:12:07.387Z,97948.22
2019-06-26T10:13:11.041Z,97947.53
2019-06-26T10:14:15.275Z,97949.28
2019-06-26T10:15:19.101Z,97942.74
2019-06-26T10:16:23.255Z,97944.37
2019-06-26T10:17:26.912Z,97945.22
2019-06-26T10:18:31.387Z,97936.36
2019-06-26T10:19:35.072Z,97938.83
2019-06-26T10:20:39.274Z,97940.98
2019-06-26T10:21:42.874Z,97933.56
2019-06-26T10:22:46.984Z,97936.77
2019-06-26T10:23:50.678Z,97936.70
2019-06-26T10:24:54.920Z,97937.42
2019-06-26T10:25:58.535Z,97936.58
2019-06-26T10:27:03.293Z,97937.42
2019-06-26T10:28:07.335Z,97939.05
2019-06-26T10:29:11.558Z,97934.43
2019-06-26T10:30:16.894Z,97934.29
2019-06-26T10:31:21.019Z,97931.89
2019-06-26T10:32:24.574Z,97932.52
2019-06-26T10:33:28.808Z,97934.91
2019-06-26T10:34:32.453Z,97936.63
2019-06-26T10:35:36.733Z,97932.04
2019-06-26T10:36:40.663Z,97932.53
2019-06-26T10:37:44.888Z,97926.44
2019-06-26T10:38:48.535Z,97930.03
2019-06-26T10:39:52.758Z,97922.16
2019-06-26T10:40:56.346Z,97923.72
2019-06-26T10:42:00.827Z,97917.40
2019-06-26T10:43:04.470Z,97918.95
2019-06-26T10:44:08.696Z,97912.74
2019-06-26T10:45:12.441Z,97916.45
2019-06-26T10:46:16.706Z,97916.79
2019-06-26T10:47:20.253Z,97913.75
2019-06-26T10:48:24.413Z,97918.50
2019-06-26T10:49:28.170Z,97913.13
2019-06-26T10:50:32.310Z,97914.22
2019-06-26T10:51:35.949Z,97911.63
2019-06-26T10:52:40.211Z,97916.35
2019-06-26T10:53:46.076Z,97919.81
2019-06-26T10:54:49.716Z,97907.09
2019-06-26T10:55:53.327Z,97911.28
2019-06-26T10:56:57.874Z,97907.49
2019-06-26T10:58:01.447Z,97910.38
2019-06-26T10:59:06.169Z,97910.47
2019-06-26T11:00:11.222Z,97902.45
2019-06-26T11:01:15.373Z,97897.78
2019-06-26T11:02:19.082Z,97901.33
2019-06-26T11:03:23.244Z,97902.75
2019-06-26T11:04:26.789Z,97897.48
2019-06-26T11:05:31.007Z,97902.20
2019-06-26T11:06:37.272Z,97897.27
2019-06-26T11:07:40.944Z,97896.55
2019-06-26T11:08:44.427Z,97897.46
2019-06-26T11:09:48.379Z,97897.86
2019-06-26T11:10:52.003Z,97894.89
2019-06-26T11:11:56.351Z,97897.49
2019-06-26T11:13:00.476Z,97894.94
2019-06-26T11:14:04.999Z,97894.72
2019-06-26T11:15:09.507Z,97900.31
2019-06-26T11:16:13.748Z,97898.70
2019-06-26T11:17:17.217Z,97899.54
2019-06-26T11:18:21.482Z,97894.17
2019-06-26T11:19:24.992Z,97893.57
2019-06-26T11:20:29.196Z,97894.12
2019-06-26T11:21:32.851Z,97894.12
2019-06-26T11:22:37.162Z,97890.89
2019-06-26T11:23:40.832Z,97892.33
2019-06-26T11:24:45.011Z,97892.96
2019-06-26T11:25:48.642Z,97890.61
2019-06-26T11:26:52.722Z,97891.56
2019-06-26T11:27:56.274Z,97884.28
2019-06-26T11:29:00.517Z,97889.94
2019-06-26T11:30:07.072Z,97882.75
2019-06-26T11:31:11.629Z,97884.61
2019-06-26T11:32:15.195Z,97882.58
2019-06-26T11:33:19.444Z,97880.13
2019-06-26T11:34:22.981Z,97893.55
2019-06-26T11:35:27.039Z,97889.45
2019-06-26T11:36:30.680Z,97886.02
2019-06-26T11:37:34.809Z,97888.86
2019-06-26T11:38:38.436Z,97882.27
2019-06-26T11:39:42.604Z,97882.00
2019-06-26T11:40:46.594Z,97877.92
2019-06-26T11:41:50.746Z,97877.59
2019-06-26T11:42:54.316Z,97878.70
2019-06-26T11:43:58.471Z,97877.67
2019-06-26T11:45:03.582Z,97886.91
2019-06-26T11:46:07.788Z,97882.69
2019-06-26T11:47:11.424Z,97881.68
2019-06-26T11:48:15.639Z,97880.52
2019-06-26T11:49:19.207Z,97883.29
2019-06-26T11:50:24.480Z,97886.29
2019-06-26T11:51:28.106Z,97882.48
2019-06-26T11:52:32.365Z,97884.33
2019-06-26T11:53:35.907Z,97883.05
2019-06-26T11:54:40.143Z,97884.00
2019-06-26T11:55:44.127Z,97890.78
2019-06-26T11:56:48.279Z,97886.62
2019-06-26T11:57:51.931Z,97887.14
2019-06-26T11:58:56.069Z,97887.50
2019-06-26T11:59:59.908Z,97888.53
2019-06-26T12:01:04.172Z,97884.89
2019-06-26T12:02:07.969Z,97883.19
2019-06-26T12:03:13.417Z,97884.30
2019-06-26T12:04:17.128Z,97884.20
2019-06-26T12:05:21.538Z,97874.00
2019-06-26T12:06:25.230Z,97872.80
2019-06-26T12:07:29.392Z,97862.42
2019-06-26T12:08:33.014Z,97869.50
2019-06-26T12:09:37.210Z,97863.51
2019-06-26T12:10:40.815Z,97858.67
2019-06-26T12:11:45.062Z,97858.16
2019-06-26T12:12:49.064Z,97863.84
2019-06-26T12:13:53.279Z,97852.56
2019-06-26T12:14:56.938Z,97849.34
2019-06-26T12:16:01.496Z,97851.92
2019-06-26T12:17:05.281Z,97857.05
2019-06-26T12:18:09.420Z,97847.88
2019-06-26T12:19:12.966Z,97848.97
2019-06-26T12:20:19.825Z,97843.76
2019-06-26T12:21:23.266Z,97849.47
2019-06-26T12:22:27.582Z,97849.52
2019-06-26T12:23:31.203Z,97843.25
2019-06-26T12:24:35.421Z,97846.27
2019-06-26T12:25:39.672Z,97847.78
2019-06-26T12:26:43.748Z,97845.34
2019-06-26T12:27:47.426Z,97832.31
2019-06-26T12:28:51.579Z,97824.27
2019-06-26T12:29:56.850Z,97831.13
2019-06-26T12:31:01.381Z,97827.60
2019-06-26T12:32:05.068Z,97828.73
2019-06-26T12:33:09.345Z,97828.69
2019-06-26T12:34:12.865Z,97822.22
2019-06-26T12:35:17.087Z,97825.53
2019-06-26T12:36:20.731Z,97826.15
2019-06-26T12:37:36.903Z,97828.78
2019-06-26T12:38:30.352Z,97828.52
2019-06-26T12:39:34.561Z,97830.19
2019-06-26T12:40:38.132Z,97830.70
2019-06-26T12:41:42.199Z,97831.44
2019-06-26T12:42:45.780Z,97835.55
2019-06-26T12:43:49.866Z,97831.02
2019-06-26T12:44:53.895Z,97829.30
2019-06-26T12:45:58.505Z,97829.13
2019-06-26T12:47:02.074Z,97835.26
2019-06-26T12:48:06.271Z,97835.56
2019-06-26T12:49:09.956Z,97834.30
2019-06-26T12:50:14.855Z,97828.44
2019-06-26T12:51:18.406Z,97829.82
2019-06-26T12:52:22.558Z,97832.15
2019-06-26T12:53:26.207Z,97832.53
2019-06-26T12:54:30.356Z,97833.60
2019-06-26T12:55:33.994Z,97834.72
2019-06-26T12:56:38.291Z,97833.31
2019-06-26T12:57:42.416Z,97827.80
2019-06-26T12:58:46.732Z,97823.13